F/V Renaissance II — FMEW — position and weather

sailwx.info

Track history (hours):
 
Tides and Currents Weather Stations Pressure Air Temp Water Temp Dewpoint Dewpoint Depression Visibility Wind Speed Wind Dir Waves Ship Positions

F/V Renaissance II

Last reported at 2017-Oct-17 06:45 UTC. Time now 2017-Oct-17 09:54 UTC.
Position N 47°03' W 002°28'.

Length 18 m.

Type: Fishing. MMSI: 228216600.

Date/timePositionNaut miles runAvg speedWind from/ knotsBaromVisibWave heightAir tempDewpointWater temp
2017-Oct-17 06:45N 47°03' W 002°28'1 2.5
2017-Oct-17 06:26N 47°04' W 002°27'0 0.5
2017-Oct-17 05:54N 47°03' W 002°27'0 1.1
2017-Oct-17 05:30N 47°03' W 002°28'2 4.4
2017-Oct-17 05:01N 47°04' W 002°24'2 4.0
2017-Oct-17 04:30N 47°05' W 002°22'1 1.6
2017-Oct-17 04:01N 47°05' W 002°22'2 2.6
2017-Oct-17 03:16N 47°04' W 002°25'1 3.0
2017-Oct-17 02:58N 47°04' W 002°26'2 3.3
2017-Oct-17 02:23N 47°03' W 002°28'1 3.4
2017-Oct-17 02:00N 47°02' W 002°29'2 3.5
2017-Oct-17 01:29N 47°01' W 002°32'0 0.2
2017-Oct-17 01:00N 47°01' W 002°31'1 2.7
2017-Oct-17 00:31N 47°02' W 002°30'1 2.5
2017-Oct-17 00:00N 47°02' W 002°28'1 2.4
2017-Oct-16 23:30N 47°03' W 002°27'1 2.1
2017-Oct-16 23:00N 47°03' W 002°26'1 1.9
2017-Oct-16 22:29N 47°04' W 002°24'1 1.9
2017-Oct-16 22:01N 47°05' W 002°23'1 2.0
2017-Oct-16 21:31N 47°05' W 002°22'1 2.3
2017-Oct-16 21:00N 47°06' W 002°21'1 2.0
2017-Oct-16 20:28N 47°06' W 002°19'2 3.9
2017-Oct-16 20:00N 47°06' W 002°22'3 4.6
2017-Oct-16 19:20N 47°04' W 002°25'2 4.9
2017-Oct-16 18:52N 47°02' W 002°28'6 2.2
2017-Oct-16 16:00N 46°59' W 002°36'20 1.6
2017-Oct-16 03:36N 46°45' W 002°15'4 7.6
2017-Oct-16 03:07N 46°43' W 002°12'1 7.5
2017-Oct-16 02:55N 46°42' W 002°10'3 7.6
2017-Oct-16 02:30N 46°40' W 002°07'4 7.8
2017-Oct-16 02:00N 46°37' W 002°03'5 9.3
2017-Oct-16 01:30N 46°34' W 001°58'5 9.3
2017-Oct-16 01:00N 46°30' W 001°53'4 8.8
2017-Oct-16 00:30N 46°28' W 001°47'2 3.0
2017-Oct-16 00:00N 46°30' W 001°47'0 0.0
2017-Oct-15 23:30N 46°30' W 001°47'1 2.2
2017-Oct-15 23:00N 46°29' W 001°47'4 7.9
2017-Oct-15 22:30N 46°30' W 001°53'5 9.4
2017-Oct-15 22:01N 46°33' W 001°57'5 9.5
2017-Oct-15 21:30N 46°37' W 002°02'5 9.5
2017-Oct-15 21:01N 46°40' W 002°07'7 9.3
2017-Oct-15 20:17N 46°45' W 002°14'3 9.3
2017-Oct-15 19:57N 46°47' W 002°17'4 9.5
2017-Oct-15 19:29N 46°50' W 002°22'4 9.3
2017-Oct-15 19:00N 46°53' W 002°26'4 8.3
2017-Oct-15 18:30N 46°57' W 002°28'510.2
2017-Oct-15 18:00N 47°02' W 002°27'3 5.2
2017-Oct-15 17:31N 47°05' W 002°26'0 0.8
2017-Oct-15 17:00N 47°05' W 002°25'0 0.4
2017-Oct-15 16:30N 47°05' W 002°25'2 4.6
2017-Oct-15 16:00N 47°04' W 002°28'0 0.8
2017-Oct-15 15:31N 47°04' W 002°28'1 1.3
2017-Oct-15 15:00N 47°03' W 002°29'1 1.3
2017-Oct-15 14:00N 47°04' W 002°27'1 2.3
2017-Oct-15 13:28N 47°03' W 002°27'1 0.8
2017-Oct-15 12:19N 47°02' W 002°28'1 0.5
2017-Oct-15 11:21N 47°03' W 002°28'0 0.5
2017-Oct-15 10:58N 47°03' W 002°28'2 3.6
2017-Oct-15 10:31N 47°04' W 002°26'0 0.9
2017-Oct-15 10:00N 47°03' W 002°27'0 0.9
2017-Oct-15 09:30N 47°03' W 002°27'5 9.8
2017-Oct-15 09:00N 47°00' W 002°33'0 0.9
2017-Oct-15 08:30N 46°60' W 002°33'1 1.9
2017-Oct-15 08:00N 46°59' W 002°33'0 0.9
2017-Oct-15 07:31N 46°59' W 002°33'1 2.3
2017-Oct-15 07:00N 46°58' W 002°35'1 1.9
2017-Oct-15 06:31N 46°59' W 002°34'1 2.8
2017-Oct-15 06:00N 46°58' W 002°35'1 2.5
2017-Oct-15 05:30N 46°57' W 002°37'1 2.3
2017-Oct-15 05:00N 46°57' W 002°38'1 1.7
2017-Oct-15 04:30N 46°57' W 002°37'1 0.9
2017-Oct-15 03:18N 46°58' W 002°36'1 3.1
2017-Oct-15 02:55N 46°59' W 002°35'1 3.1
2017-Oct-15 02:31N 46°60' W 002°33'2 3.1
2017-Oct-15 02:01N 47°00' W 002°31'2 2.9
2017-Oct-15 01:24N 47°02' W 002°29'2 2.6
2017-Oct-15 00:44N 47°03' W 002°27'1 2.4
2017-Oct-15 00:22N 47°03' W 002°26'1 2.3
2017-Oct-15 00:00N 47°04' W 002°25'1 2.2
2017-Oct-14 23:30N 47°04' W 002°24'1 2.2
2017-Oct-14 23:00N 47°05' W 002°22'1 2.4
2017-Oct-14 22:27N 47°06' W 002°21'1 2.3
2017-Oct-14 21:57N 47°06' W 002°19'2 2.1
2017-Oct-14 21:11N 47°05' W 002°21'1 3.7
2017-Oct-14 21:00N 47°05' W 002°22'2 3.9
2017-Oct-14 20:30N 47°04' W 002°25'2 4.0
2017-Oct-14 20:00N 47°03' W 002°27'2 4.0
2017-Oct-14 19:30N 47°02' W 002°29'1 2.2
2017-Oct-14 18:55N 47°01' W 002°31'1 3.6
2017-Oct-14 18:30N 47°00' W 002°33'2 3.6
2017-Oct-14 18:00N 46°60' W 002°35'1 1.8
2017-Oct-14 17:28N 46°59' W 002°37'1 1.9
2017-Oct-14 17:00N 46°59' W 002°36'2 3.3
2017-Oct-14 16:30N 46°59' W 002°38'1 1.2
2017-Oct-14 15:39N 46°59' W 002°37'1 3.8
2017-Oct-14 15:30N 46°59' W 002°37'3 5.1
2017-Oct-14 14:53N 46°59' W 002°41'0 0.7
2017-Oct-14 14:27N 46°59' W 002°41'1 2.4
2017-Oct-14 14:00N 46°58' W 002°39'1 0.8
2017-Oct-14 13:02N 46°59' W 002°38'1 6.6
2017-Oct-14 12:56N 46°60' W 002°39'3 7.4
2017-Oct-14 12:30N 46°58' W 002°42'3 2.5
2017-Oct-14 11:25N 46°56' W 002°40'2 4.7
2017-Oct-14 10:53N 46°54' W 002°42'7 5.2
2017-Oct-14 09:32N 46°47' W 002°45'1 4.7
2017-Oct-14 09:22N 46°47' W 002°46'2 3.7
2017-Oct-14 08:58N 46°48' W 002°48'1 1.3
2017-Oct-14 08:23N 46°48' W 002°48'1 1.8
2017-Oct-14 07:54N 46°48' W 002°50'2 2.4
2017-Oct-14 07:09N 46°47' W 002°51'0 1.1
2017-Oct-14 06:59N 46°46' W 002°51'1 0.9
2017-Oct-14 06:16N 46°46' W 002°51'1 2.6
2017-Oct-14 06:01N 46°46' W 002°52'4 3.1
2017-Oct-14 04:52N 46°44' W 002°47'510.2
2017-Oct-14 04:23N 46°43' W 002°40'4 9.8
2017-Oct-14 04:00N 46°41' W 002°35'5 9.9
2017-Oct-14 03:30N 46°40' W 002°29'510.2
2017-Oct-14 03:00N 46°38' W 002°22'510.3
2017-Oct-14 02:30N 46°36' W 002°15'611.7
2017-Oct-14 02:00N 46°34' W 002°07'4 8.5
2017-Oct-14 01:30N 46°32' W 002°01'510.0
2017-Oct-14 01:00N 46°30' W 001°55'510.0
2017-Oct-14 00:30N 46°28' W 001°48'2 3.0
2017-Oct-14 00:00N 46°30' W 001°47'0 0.0
2017-Oct-13 23:31N 46°30' W 001°47'0 0.0
2017-Oct-13 23:01N 46°30' W 001°47'0 0.0
2017-Oct-13 22:30N 46°30' W 001°47'0 0.0
2017-Oct-13 22:00N 46°30' W 001°47'0 0.0
2017-Oct-13 21:30N 46°30' W 001°47'0 0.0
2017-Oct-13 21:00N 46°30' W 001°47'0 0.0
2017-Oct-13 20:30N 46°30' W 001°47'0 0.0
2017-Oct-13 20:00N 46°30' W 001°47'0 0.0
2017-Oct-13 19:30N 46°30' W 001°47'0 0.0
2017-Oct-13 19:00N 46°30' W 001°47'0 0.0
2017-Oct-13 18:30N 46°30' W 001°47'0 0.0
2017-Oct-13 18:01N 46°30' W 001°47'0 0.0
2017-Oct-13 17:30N 46°30' W 001°47'0 0.0
2017-Oct-13 17:01N 46°30' W 001°47'2 3.1
2017-Oct-13 16:30N 46°28' W 001°48'5 9.8
2017-Oct-13 16:00N 46°28' W 001°55'1 1.2
2017-Oct-13 15:30N 46°28' W 001°56'4 8.8
2017-Oct-13 15:00N 46°32' W 002°00'5 9.7
2017-Oct-13 14:30N 46°34' W 002°07'5 9.5
2017-Oct-13 14:01N 46°36' W 002°13'5 9.4
2017-Oct-13 13:26N 46°38' W 002°20'7 9.3
2017-Oct-13 12:40N 46°41' W 002°29'2 9.3
2017-Oct-13 12:30N 46°42' W 002°31'5 9.5
2017-Oct-13 12:00N 46°44' W 002°38'5 9.7
2017-Oct-13 11:27N 46°46' W 002°45'3 6.2
2017-Oct-13 10:56N 46°47' W 002°49'0 0.9
2017-Oct-13 10:28N 46°47' W 002°50'0 0.6
2017-Oct-13 09:58N 46°47' W 002°49'1 1.2
2017-Oct-13 09:26N 46°47' W 002°50'2 2.5
2017-Oct-13 08:35N 46°46' W 002°47'0 5.0
2017-Oct-13 08:31N 46°46' W 002°47'1 1.1
2017-Oct-13 07:59N 46°46' W 002°48'0 0.9
2017-Oct-13 07:29N 46°45' W 002°48'0 0.6
2017-Oct-13 06:40N 46°45' W 002°49'1 2.8
2017-Oct-13 06:20N 46°45' W 002°50'1 1.9
2017-Oct-13 05:47N 46°45' W 002°49'0 0.6
2017-Oct-13 05:30N 46°45' W 002°49'0 0.2
2017-Oct-13 04:51N 46°45' W 002°49'14 8.5
2017-Oct-13 03:09N 46°40' W 002°30'2 9.8
2017-Oct-13 02:58N 46°39' W 002°27'510.2
2017-Oct-13 02:30N 46°38' W 002°20'510.2
2017-Oct-13 02:00N 46°36' W 002°14'510.2
2017-Oct-13 01:30N 46°33' W 002°07'510.0
2017-Oct-13 01:00N 46°31' W 002°00'510.1
2017-Oct-13 00:30N 46°29' W 001°54'5 9.2
2017-Oct-13 00:00N 46°29' W 001°47'1 2.0
2017-Oct-12 23:30N 46°30' W 001°47'0 0.0
2017-Oct-12 23:00N 46°30' W 001°47'0 0.3
2017-Oct-12 22:30N 46°30' W 001°47'2 4.3
2017-Oct-12 22:00N 46°29' W 001°50'5 9.8
2017-Oct-12 21:30N 46°31' W 001°56'510.0
2017-Oct-12 21:01N 46°33' W 002°03'510.0
2017-Oct-12 20:30N 46°35' W 002°09'5 9.9
2017-Oct-12 20:00N 46°37' W 002°16'7 9.8
2017-Oct-12 19:17N 46°40' W 002°25'18 1.3
2017-Oct-12 05:25N 46°52' W 002°45'9 3.9
2017-Oct-12 03:11N 46°46' W 002°36'1 4.6
2017-Oct-12 02:58N 46°46' W 002°35'16 5.8
2017-Oct-12 00:08N 46°37' W 002°15'2 5.9
2017-Oct-11 23:47N 46°36' W 002°12'2 5.8
2017-Oct-11 23:28N 46°35' W 002°10'3 5.7
2017-Oct-11 23:00N 46°34' W 002°06'3 5.6
2017-Oct-11 22:30N 46°33' W 002°03'3 5.5
2017-Oct-11 22:01N 46°32' W 001°59'3 5.5
2017-Oct-11 21:30N 46°30' W 001°56'3 5.6
2017-Oct-11 21:00N 46°29' W 001°52'3 6.8
2017-Oct-11 20:30N 46°28' W 001°47'2 3.0
2017-Oct-11 20:00N 46°30' W 001°47'0 0.9
2017-Oct-11 19:30N 46°30' W 001°48'3 5.2
2017-Oct-11 19:00N 46°29' W 001°51'2 5.0
2017-Oct-11 18:30N 46°30' W 001°55'4 7.0
2017-Oct-11 18:00N 46°32' W 001°59'1 1.0
2017-Oct-11 17:30N 46°32' W 001°59'1 2.8
2017-Oct-11 17:00N 46°33' W 002°01'10 0.6
2017-Oct-11 00:01N 46°30' W 001°47'0 0.0
2017-Oct-10 23:30N 46°30' W 001°47'0 0.0
2017-Oct-10 23:01N 46°30' W 001°47'0 0.0
2017-Oct-10 22:31N 46°30' W 001°47'0 0.0
2017-Oct-10 22:00N 46°30' W 001°47'0 0.0
2017-Oct-10 21:30N 46°30' W 001°47'0 0.0
2017-Oct-10 21:00N 46°30' W 001°47'0 0.0
2017-Oct-10 20:31N 46°30' W 001°47'0 0.0
2017-Oct-10 20:00N 46°30' W 001°47'0 0.0
2017-Oct-10 19:30N 46°30' W 001°47'0 0.0
2017-Oct-10 19:00N 46°30' W 001°47'0 0.9
2017-Oct-10 18:30N 46°29' W 001°48'5 9.2
2017-Oct-10 18:00N 46°28' W 001°54'5 9.4
2017-Oct-10 17:30N 46°27' W 002°00'0 0.9
2017-Oct-10 17:00N 46°27' W 002°01'1 2.0
2017-Oct-10 16:30N 46°26' W 002°02'2 4.5
2017-Oct-10 16:00N 46°25' W 002°05'1 1.1
2017-Oct-10 15:27N 46°25' W 002°06'1 2.1
2017-Oct-10 14:59N 46°24' W 002°06'4 2.8
2017-Oct-10 13:38N 46°21' W 002°03'1 5.4
2017-Oct-10 13:30N 46°21' W 002°03'3 5.1
2017-Oct-10 12:58N 46°21' W 001°59'1 1.1
2017-Oct-10 12:23N 46°21' W 001°58'1 3.2
2017-Oct-10 12:00N 46°22' W 001°57'2 3.5
2017-Oct-10 11:30N 46°23' W 001°54'1 1.6
2017-Oct-10 11:01N 46°23' W 001°53'1 2.2
2017-Oct-10 10:30N 46°24' W 001°53'3 6.8
2017-Oct-10 10:00N 46°25' W 001°57'2 4.2
2017-Oct-10 09:31N 46°27' W 001°59'1 1.1
2017-Oct-10 09:00N 46°27' W 001°59'1 1.6
2017-Oct-10 08:30N 46°27' W 001°58'0 1.0
2017-Oct-10 08:00N 46°27' W 001°58'1 2.2
2017-Oct-10 07:30N 46°28' W 001°58'1 2.3
2017-Oct-10 07:00N 46°27' W 001°58'1 1.4
2017-Oct-10 06:30N 46°28' W 001°57'0 0.7
2017-Oct-10 06:00N 46°27' W 001°57'4 8.9
2017-Oct-10 05:30N 46°28' W 001°51'3 6.2
2017-Oct-10 05:00N 46°30' W 001°47'0 0.1
2017-Oct-10 04:31N 46°30' W 001°47'0 0.0
2017-Oct-10 04:00N 46°30' W 001°47'0 0.0
2017-Oct-10 03:30N 46°30' W 001°47'0 0.0
2017-Oct-10 03:01N 46°30' W 001°47'0 0.0
2017-Oct-10 02:30N 46°30' W 001°47'0 0.0
2017-Oct-10 02:00N 46°30' W 001°47'0 0.0
2017-Oct-10 01:30N 46°30' W 001°47'0 0.0
2017-Oct-10 01:00N 46°30' W 001°47'0 0.0
2017-Oct-10 00:30N 46°30' W 001°47'0 0.0
2017-Oct-10 00:00N 46°30' W 001°47'0 0.0
2017-Oct-09 23:30N 46°30' W 001°47'0 0.0
2017-Oct-09 23:00N 46°30' W 001°47'0 0.0
2017-Oct-09 22:30N 46°30' W 001°47'0 0.0
2017-Oct-09 22:00N 46°30' W 001°47'0 0.0
2017-Oct-09 21:31N 46°30' W 001°47'0 0.0
2017-Oct-09 21:00N 46°30' W 001°47'0 0.0
2017-Oct-09 20:30N 46°30' W 001°47'0 0.0
2017-Oct-09 20:00N 46°30' W 001°47'0 0.0
2017-Oct-09 19:30N 46°30' W 001°47'0 0.0
2017-Oct-09 19:00N 46°30' W 001°47'0 0.0
2017-Oct-09 18:31N 46°30' W 001°47'0 0.0
2017-Oct-09 18:01N 46°30' W 001°47'0 0.0
2017-Oct-09 17:30N 46°30' W 001°47'0 0.0
2017-Oct-09 17:01N 46°30' W 001°47'2 3.4
2017-Oct-09 16:30N 46°28' W 001°49'3 5.7
2017-Oct-09 16:00N 46°28' W 001°53'1 2.8
2017-Oct-09 15:30N 46°28' W 001°51'3 6.1
2017-Oct-09 15:00N 46°30' W 001°47'0 0.0
2017-Oct-09 14:30N 46°30' W 001°47'0 0.0
2017-Oct-09 14:00N 46°30' W 001°47'0 0.0
2017-Oct-09 13:30N 46°30' W 001°47'0 0.0
2017-Oct-09 13:00N 46°30' W 001°47'0 0.0
2017-Oct-09 12:31N 46°30' W 001°47'0 0.0
2017-Oct-09 12:00N 46°30' W 001°47'0 0.0
2017-Oct-09 11:31N 46°30' W 001°47'0 0.0
2017-Oct-09 11:01N 46°30' W 001°47'0 0.0
2017-Oct-09 10:31N 46°30' W 001°47'0 0.0
2017-Oct-09 10:00N 46°30' W 001°47'8 3.7
2017-Oct-09 07:49N 46°26' W 001°58'1 2.3
2017-Oct-09 07:30N 46°27' W 001°58'0 0.6
2017-Oct-09 07:01N 46°27' W 001°58'1 2.4
2017-Oct-09 06:30N 46°27' W 001°57'0 0.4
2017-Oct-09 06:00N 46°27' W 001°57'5 9.2
2017-Oct-09 05:30N 46°28' W 001°51'3 5.4
2017-Oct-09 05:00N 46°30' W 001°47'0 0.0
2017-Oct-09 04:30N 46°30' W 001°47'0 0.0
2017-Oct-09 04:00N 46°30' W 001°47'0 0.0
2017-Oct-09 03:31N 46°30' W 001°47'0 0.0
2017-Oct-09 03:00N 46°30' W 001°47'0 0.0
2017-Oct-09 02:30N 46°30' W 001°47'0 0.0
2017-Oct-09 02:01N 46°30' W 001°47'0 0.0
2017-Oct-09 01:31N 46°30' W 001°47'0 0.0
2017-Oct-09 01:00N 46°30' W 001°47'0 0.0
2017-Oct-09 00:31N 46°30' W 001°47'0 0.0
2017-Oct-09 00:00N 46°30' W 001°47'0 0.0
2017-Oct-08 23:30N 46°30' W 001°47'0 0.0
2017-Oct-08 23:00N 46°30' W 001°47'0 0.0
2017-Oct-08 22:30N 46°30' W 001°47'0 0.0
2017-Oct-08 22:00N 46°30' W 001°47'0 0.0
2017-Oct-08 21:30N 46°30' W 001°47'0 0.0
2017-Oct-08 21:00N 46°30' W 001°47'0 0.0
2017-Oct-08 20:30N 46°30' W 001°47'0 0.0
2017-Oct-08 20:00N 46°30' W 001°47'0 0.0
2017-Oct-08 19:31N 46°30' W 001°47'0 0.0
2017-Oct-08 19:00N 46°30' W 001°47'0 0.3
2017-Oct-08 18:30N 46°30' W 001°47'0 0.9
2017-Oct-08 18:00N 46°30' W 001°48'4 8.4
2017-Oct-08 17:30N 46°27' W 001°53'5 9.8
2017-Oct-08 17:01N 46°26' W 001°59'510.0
2017-Oct-08 16:30N 46°24' W 002°06'3 3.3
2017-Oct-08 15:39N 46°24' W 002°10'1 3.7
2017-Oct-08 15:29N 46°24' W 002°11'0 0.4
2017-Oct-08 15:00N 46°24' W 002°12'1 1.3
2017-Oct-08 14:19N 46°24' W 002°13'0 1.5
2017-Oct-08 14:00N 46°23' W 002°13'7 0.5
2017-Oct-08 01:59N 46°17' W 002°11'2 4.2
2017-Oct-08 01:30N 46°16' W 002°08'3 4.4
2017-Oct-08 00:46N 46°14' W 002°04'1 4.6
2017-Oct-08 00:30N 46°14' W 002°03'3 4.6
2017-Oct-07 23:56N 46°12' W 001°59'2 4.6
2017-Oct-07 23:28N 46°11' W 001°57'3 4.8
2017-Oct-07 22:54N 46°10' W 001°53'18 3.5
2017-Oct-07 17:41N 45°56' W 001°36'3 0.6
2017-Oct-07 12:05N 45°59' W 001°39'3 1.8
2017-Oct-07 10:33N 45°60' W 001°42'2 9.6
2017-Oct-07 10:24N 46°00' W 001°44'  
Track history (hours):
 
Tides and Currents Weather Stations Pressure Air Temp Water Temp Dewpoint Dewpoint Depression Visibility Wind Speed Wind Dir Waves Ship Positions

F/V Renaissance II

Last reported at 2017-Oct-17 06:45 UTC. Time now 2017-Oct-17 09:54 UTC.
Position N 47°03' W 002°28'.

Length 18 m.

Type: Fishing. MMSI: 228216600.

Date/timePositionNaut miles runAvg speedWind from/ knotsBaromVisibWave heightAir tempDewpointWater temp
2017-Oct-17 06:45N 47°03' W 002°28'1 2.5
2017-Oct-17 06:26N 47°04' W 002°27'0 0.5
2017-Oct-17 05:54N 47°03' W 002°27'0 1.1
2017-Oct-17 05:30N 47°03' W 002°28'2 4.4
2017-Oct-17 05:01N 47°04' W 002°24'2 4.0
2017-Oct-17 04:30N 47°05' W 002°22'1 1.6
2017-Oct-17 04:01N 47°05' W 002°22'2 2.6
2017-Oct-17 03:16N 47°04' W 002°25'1 3.0
2017-Oct-17 02:58N 47°04' W 002°26'2 3.3
2017-Oct-17 02:23N 47°03' W 002°28'1 3.4
2017-Oct-17 02:00N 47°02' W 002°29'2 3.5
2017-Oct-17 01:29N 47°01' W 002°32'0 0.2
2017-Oct-17 01:00N 47°01' W 002°31'1 2.7
2017-Oct-17 00:31N 47°02' W 002°30'1 2.5
2017-Oct-17 00:00N 47°02' W 002°28'1 2.4
2017-Oct-16 23:30N 47°03' W 002°27'1 2.1
2017-Oct-16 23:00N 47°03' W 002°26'1 1.9
2017-Oct-16 22:29N 47°04' W 002°24'1 1.9
2017-Oct-16 22:01N 47°05' W 002°23'1 2.0
2017-Oct-16 21:31N 47°05' W 002°22'1 2.3
2017-Oct-16 21:00N 47°06' W 002°21'1 2.0
2017-Oct-16 20:28N 47°06' W 002°19'2 3.9
2017-Oct-16 20:00N 47°06' W 002°22'3 4.6
2017-Oct-16 19:20N 47°04' W 002°25'2 4.9
2017-Oct-16 18:52N 47°02' W 002°28'6 2.2
2017-Oct-16 16:00N 46°59' W 002°36'20 1.6
2017-Oct-16 03:36N 46°45' W 002°15'4 7.6
2017-Oct-16 03:07N 46°43' W 002°12'1 7.5
2017-Oct-16 02:55N 46°42' W 002°10'3 7.6
2017-Oct-16 02:30N 46°40' W 002°07'4 7.8
2017-Oct-16 02:00N 46°37' W 002°03'5 9.3
2017-Oct-16 01:30N 46°34' W 001°58'5 9.3
2017-Oct-16 01:00N 46°30' W 001°53'4 8.8
2017-Oct-16 00:30N 46°28' W 001°47'2 3.0
2017-Oct-16 00:00N 46°30' W 001°47'0 0.0
2017-Oct-15 23:30N 46°30' W 001°47'1 2.2
2017-Oct-15 23:00N 46°29' W 001°47'4 7.9
2017-Oct-15 22:30N 46°30' W 001°53'5 9.4
2017-Oct-15 22:01N 46°33' W 001°57'5 9.5
2017-Oct-15 21:30N 46°37' W 002°02'5 9.5
2017-Oct-15 21:01N 46°40' W 002°07'7 9.3
2017-Oct-15 20:17N 46°45' W 002°14'3 9.3
2017-Oct-15 19:57N 46°47' W 002°17'4 9.5
2017-Oct-15 19:29N 46°50' W 002°22'4 9.3
2017-Oct-15 19:00N 46°53' W 002°26'4 8.3
2017-Oct-15 18:30N 46°57' W 002°28'510.2
2017-Oct-15 18:00N 47°02' W 002°27'3 5.2
2017-Oct-15 17:31N 47°05' W 002°26'0 0.8
2017-Oct-15 17:00N 47°05' W 002°25'0 0.4
2017-Oct-15 16:30N 47°05' W 002°25'2 4.6
2017-Oct-15 16:00N 47°04' W 002°28'0 0.8
2017-Oct-15 15:31N 47°04' W 002°28'1 1.3
2017-Oct-15 15:00N 47°03' W 002°29'1 1.3
2017-Oct-15 14:00N 47°04' W 002°27'1 2.3
2017-Oct-15 13:28N 47°03' W 002°27'1 0.8
2017-Oct-15 12:19N 47°02' W 002°28'1 0.5
2017-Oct-15 11:21N 47°03' W 002°28'0 0.5
2017-Oct-15 10:58N 47°03' W 002°28'2 3.6
2017-Oct-15 10:31N 47°04' W 002°26'0 0.9
2017-Oct-15 10:00N 47°03' W 002°27'0 0.9
2017-Oct-15 09:30N 47°03' W 002°27'5 9.8
2017-Oct-15 09:00N 47°00' W 002°33'0 0.9
2017-Oct-15 08:30N 46°60' W 002°33'1 1.9
2017-Oct-15 08:00N 46°59' W 002°33'0 0.9
2017-Oct-15 07:31N 46°59' W 002°33'1 2.3
2017-Oct-15 07:00N 46°58' W 002°35'1 1.9
2017-Oct-15 06:31N 46°59' W 002°34'1 2.8
2017-Oct-15 06:00N 46°58' W 002°35'1 2.5
2017-Oct-15 05:30N 46°57' W 002°37'1 2.3
2017-Oct-15 05:00N 46°57' W 002°38'1 1.7
2017-Oct-15 04:30N 46°57' W 002°37'1 0.9
2017-Oct-15 03:18N 46°58' W 002°36'1 3.1
2017-Oct-15 02:55N 46°59' W 002°35'1 3.1
2017-Oct-15 02:31N 46°60' W 002°33'2 3.1
2017-Oct-15 02:01N 47°00' W 002°31'2 2.9
2017-Oct-15 01:24N 47°02' W 002°29'2 2.6
2017-Oct-15 00:44N 47°03' W 002°27'1 2.4
2017-Oct-15 00:22N 47°03' W 002°26'1 2.3
2017-Oct-15 00:00N 47°04' W 002°25'1 2.2
2017-Oct-14 23:30N 47°04' W 002°24'1 2.2
2017-Oct-14 23:00N 47°05' W 002°22'1 2.4
2017-Oct-14 22:27N 47°06' W 002°21'1 2.3
2017-Oct-14 21:57N 47°06' W 002°19'2 2.1
2017-Oct-14 21:11N 47°05' W 002°21'1 3.7
2017-Oct-14 21:00N 47°05' W 002°22'2 3.9
2017-Oct-14 20:30N 47°04' W 002°25'2 4.0
2017-Oct-14 20:00N 47°03' W 002°27'2 4.0
2017-Oct-14 19:30N 47°02' W 002°29'1 2.2
2017-Oct-14 18:55N 47°01' W 002°31'1 3.6
2017-Oct-14 18:30N 47°00' W 002°33'2 3.6
2017-Oct-14 18:00N 46°60' W 002°35'1 1.8
2017-Oct-14 17:28N 46°59' W 002°37'1 1.9
2017-Oct-14 17:00N 46°59' W 002°36'2 3.3
2017-Oct-14 16:30N 46°59' W 002°38'1 1.2
2017-Oct-14 15:39N 46°59' W 002°37'1 3.8
2017-Oct-14 15:30N 46°59' W 002°37'3 5.1
2017-Oct-14 14:53N 46°59' W 002°41'0 0.7
2017-Oct-14 14:27N 46°59' W 002°41'1 2.4
2017-Oct-14 14:00N 46°58' W 002°39'1 0.8
2017-Oct-14 13:02N 46°59' W 002°38'1 6.6
2017-Oct-14 12:56N 46°60' W 002°39'3 7.4
2017-Oct-14 12:30N 46°58' W 002°42'3 2.5
2017-Oct-14 11:25N 46°56' W 002°40'2 4.7
2017-Oct-14 10:53N 46°54' W 002°42'7 5.2
2017-Oct-14 09:32N 46°47' W 002°45'1 4.7
2017-Oct-14 09:22N 46°47' W 002°46'2 3.7
2017-Oct-14 08:58N 46°48' W 002°48'1 1.3
2017-Oct-14 08:23N 46°48' W 002°48'1 1.8
2017-Oct-14 07:54N 46°48' W 002°50'2 2.4
2017-Oct-14 07:09N 46°47' W 002°51'0 1.1
2017-Oct-14 06:59N 46°46' W 002°51'1 0.9
2017-Oct-14 06:16N 46°46' W 002°51'1 2.6
2017-Oct-14 06:01N 46°46' W 002°52'4 3.1
2017-Oct-14 04:52N 46°44' W 002°47'510.2
2017-Oct-14 04:23N 46°43' W 002°40'4 9.8
2017-Oct-14 04:00N 46°41' W 002°35'5 9.9
2017-Oct-14 03:30N 46°40' W 002°29'510.2
2017-Oct-14 03:00N 46°38' W 002°22'510.3
2017-Oct-14 02:30N 46°36' W 002°15'611.7
2017-Oct-14 02:00N 46°34' W 002°07'4 8.5
2017-Oct-14 01:30N 46°32' W 002°01'510.0
2017-Oct-14 01:00N 46°30' W 001°55'510.0
2017-Oct-14 00:30N 46°28' W 001°48'2 3.0
2017-Oct-14 00:00N 46°30' W 001°47'0 0.0
2017-Oct-13 23:31N 46°30' W 001°47'0 0.0
2017-Oct-13 23:01N 46°30' W 001°47'0 0.0
2017-Oct-13 22:30N 46°30' W 001°47'0 0.0
2017-Oct-13 22:00N 46°30' W 001°47'0 0.0
2017-Oct-13 21:30N 46°30' W 001°47'0 0.0
2017-Oct-13 21:00N 46°30' W 001°47'0 0.0
2017-Oct-13 20:30N 46°30' W 001°47'0 0.0
2017-Oct-13 20:00N 46°30' W 001°47'0 0.0
2017-Oct-13 19:30N 46°30' W 001°47'0 0.0
2017-Oct-13 19:00N 46°30' W 001°47'0 0.0
2017-Oct-13 18:30N 46°30' W 001°47'0 0.0
2017-Oct-13 18:01N 46°30' W 001°47'0 0.0
2017-Oct-13 17:30N 46°30' W 001°47'0 0.0
2017-Oct-13 17:01N 46°30' W 001°47'2 3.1
2017-Oct-13 16:30N 46°28' W 001°48'5 9.8
2017-Oct-13 16:00N 46°28' W 001°55'1 1.2
2017-Oct-13 15:30N 46°28' W 001°56'4 8.8
2017-Oct-13 15:00N 46°32' W 002°00'5 9.7
2017-Oct-13 14:30N 46°34' W 002°07'5 9.5
2017-Oct-13 14:01N 46°36' W 002°13'5 9.4
2017-Oct-13 13:26N 46°38' W 002°20'7 9.3
2017-Oct-13 12:40N 46°41' W 002°29'2 9.3
2017-Oct-13 12:30N 46°42' W 002°31'5 9.5
2017-Oct-13 12:00N 46°44' W 002°38'5 9.7
2017-Oct-13 11:27N 46°46' W 002°45'3 6.2
2017-Oct-13 10:56N 46°47' W 002°49'0 0.9
2017-Oct-13 10:28N 46°47' W 002°50'0 0.6
2017-Oct-13 09:58N 46°47' W 002°49'1 1.2
2017-Oct-13 09:26N 46°47' W 002°50'2 2.5
2017-Oct-13 08:35N 46°46' W 002°47'0 5.0
2017-Oct-13 08:31N 46°46' W 002°47'1 1.1
2017-Oct-13 07:59N 46°46' W 002°48'0 0.9
2017-Oct-13 07:29N 46°45' W 002°48'0 0.6
2017-Oct-13 06:40N 46°45' W 002°49'1 2.8
2017-Oct-13 06:20N 46°45' W 002°50'1 1.9
2017-Oct-13 05:47N 46°45' W 002°49'0 0.6
2017-Oct-13 05:30N 46°45' W 002°49'0 0.2
2017-Oct-13 04:51N 46°45' W 002°49'14 8.5
2017-Oct-13 03:09N 46°40' W 002°30'2 9.8
2017-Oct-13 02:58N 46°39' W 002°27'510.2
2017-Oct-13 02:30N 46°38' W 002°20'510.2
2017-Oct-13 02:00N 46°36' W 002°14'510.2
2017-Oct-13 01:30N 46°33' W 002°07'510.0
2017-Oct-13 01:00N 46°31' W 002°00'510.1
2017-Oct-13 00:30N 46°29' W 001°54'5 9.2
2017-Oct-13 00:00N 46°29' W 001°47'1 2.0
2017-Oct-12 23:30N 46°30' W 001°47'0 0.0
2017-Oct-12 23:00N 46°30' W 001°47'0 0.3
2017-Oct-12 22:30N 46°30' W 001°47'2 4.3
2017-Oct-12 22:00N 46°29' W 001°50'5 9.8
2017-Oct-12 21:30N 46°31' W 001°56'510.0
2017-Oct-12 21:01N 46°33' W 002°03'510.0
2017-Oct-12 20:30N 46°35' W 002°09'5 9.9
2017-Oct-12 20:00N 46°37' W 002°16'7 9.8
2017-Oct-12 19:17N 46°40' W 002°25'18 1.3
2017-Oct-12 05:25N 46°52' W 002°45'9 3.9
2017-Oct-12 03:11N 46°46' W 002°36'1 4.6
2017-Oct-12 02:58N 46°46' W 002°35'16 5.8
2017-Oct-12 00:08N 46°37' W 002°15'2 5.9
2017-Oct-11 23:47N 46°36' W 002°12'2 5.8
2017-Oct-11 23:28N 46°35' W 002°10'3 5.7
2017-Oct-11 23:00N 46°34' W 002°06'3 5.6
2017-Oct-11 22:30N 46°33' W 002°03'3 5.5
2017-Oct-11 22:01N 46°32' W 001°59'3 5.5
2017-Oct-11 21:30N 46°30' W 001°56'3 5.6
2017-Oct-11 21:00N 46°29' W 001°52'3 6.8
2017-Oct-11 20:30N 46°28' W 001°47'2 3.0
2017-Oct-11 20:00N 46°30' W 001°47'0 0.9
2017-Oct-11 19:30N 46°30' W 001°48'3 5.2
2017-Oct-11 19:00N 46°29' W 001°51'2 5.0
2017-Oct-11 18:30N 46°30' W 001°55'4 7.0
2017-Oct-11 18:00N 46°32' W 001°59'1 1.0
2017-Oct-11 17:30N 46°32' W 001°59'1 2.8
2017-Oct-11 17:00N 46°33' W 002°01'10 0.6
2017-Oct-11 00:01N 46°30' W 001°47'0 0.0
2017-Oct-10 23:30N 46°30' W 001°47'0 0.0
2017-Oct-10 23:01N 46°30' W 001°47'0 0.0
2017-Oct-10 22:31N 46°30' W 001°47'0 0.0
2017-Oct-10 22:00N 46°30' W 001°47'0 0.0
2017-Oct-10 21:30N 46°30' W 001°47'0 0.0
2017-Oct-10 21:00N 46°30' W 001°47'0 0.0
2017-Oct-10 20:31N 46°30' W 001°47'0 0.0
2017-Oct-10 20:00N 46°30' W 001°47'0 0.0
2017-Oct-10 19:30N 46°30' W 001°47'0 0.0
2017-Oct-10 19:00N 46°30' W 001°47'0 0.9
2017-Oct-10 18:30N 46°29' W 001°48'5 9.2
2017-Oct-10 18:00N 46°28' W 001°54'5 9.4
2017-Oct-10 17:30N 46°27' W 002°00'0 0.9
2017-Oct-10 17:00N 46°27' W 002°01'1 2.0
2017-Oct-10 16:30N 46°26' W 002°02'2 4.5
2017-Oct-10 16:00N 46°25' W 002°05'1 1.1
2017-Oct-10 15:27N 46°25' W 002°06'1 2.1
2017-Oct-10 14:59N 46°24' W 002°06'4 2.8
2017-Oct-10 13:38N 46°21' W 002°03'1 5.4
2017-Oct-10 13:30N 46°21' W 002°03'3 5.1
2017-Oct-10 12:58N 46°21' W 001°59'1 1.1
2017-Oct-10 12:23N 46°21' W 001°58'1 3.2
2017-Oct-10 12:00N 46°22' W 001°57'2 3.5
2017-Oct-10 11:30N 46°23' W 001°54'1 1.6
2017-Oct-10 11:01N 46°23' W 001°53'1 2.2
2017-Oct-10 10:30N 46°24' W 001°53'3 6.8
2017-Oct-10 10:00N 46°25' W 001°57'2 4.2
2017-Oct-10 09:31N 46°27' W 001°59'1 1.1
2017-Oct-10 09:00N 46°27' W 001°59'1 1.6
2017-Oct-10 08:30N 46°27' W 001°58'0 1.0
2017-Oct-10 08:00N 46°27' W 001°58'1 2.2
2017-Oct-10 07:30N 46°28' W 001°58'1 2.3
2017-Oct-10 07:00N 46°27' W 001°58'1 1.4
2017-Oct-10 06:30N 46°28' W 001°57'0 0.7
2017-Oct-10 06:00N 46°27' W 001°57'4 8.9
2017-Oct-10 05:30N 46°28' W 001°51'3 6.2
2017-Oct-10 05:00N 46°30' W 001°47'0 0.1
2017-Oct-10 04:31N 46°30' W 001°47'0 0.0
2017-Oct-10 04:00N 46°30' W 001°47'0 0.0
2017-Oct-10 03:30N 46°30' W 001°47'0 0.0
2017-Oct-10 03:01N 46°30' W 001°47'0 0.0
2017-Oct-10 02:30N 46°30' W 001°47'0 0.0
2017-Oct-10 02:00N 46°30' W 001°47'0 0.0
2017-Oct-10 01:30N 46°30' W 001°47'0 0.0
2017-Oct-10 01:00N 46°30' W 001°47'0 0.0
2017-Oct-10 00:30N 46°30' W 001°47'0 0.0
2017-Oct-10 00:00N 46°30' W 001°47'0 0.0
2017-Oct-09 23:30N 46°30' W 001°47'0 0.0
2017-Oct-09 23:00N 46°30' W 001°47'0 0.0
2017-Oct-09 22:30N 46°30' W 001°47'0 0.0
2017-Oct-09 22:00N 46°30' W 001°47'0 0.0
2017-Oct-09 21:31N 46°30' W 001°47'0 0.0
2017-Oct-09 21:00N 46°30' W 001°47'0 0.0
2017-Oct-09 20:30N 46°30' W 001°47'0 0.0
2017-Oct-09 20:00N 46°30' W 001°47'0 0.0
2017-Oct-09 19:30N 46°30' W 001°47'0 0.0
2017-Oct-09 19:00N 46°30' W 001°47'0 0.0
2017-Oct-09 18:31N 46°30' W 001°47'0 0.0
2017-Oct-09 18:01N 46°30' W 001°47'0 0.0
2017-Oct-09 17:30N 46°30' W 001°47'0 0.0
2017-Oct-09 17:01N 46°30' W 001°47'2 3.4
2017-Oct-09 16:30N 46°28' W 001°49'3 5.7
2017-Oct-09 16:00N 46°28' W 001°53'1 2.8
2017-Oct-09 15:30N 46°28' W 001°51'3 6.1
2017-Oct-09 15:00N 46°30' W 001°47'0 0.0
2017-Oct-09 14:30N 46°30' W 001°47'0 0.0
2017-Oct-09 14:00N 46°30' W 001°47'0 0.0
2017-Oct-09 13:30N 46°30' W 001°47'0 0.0
2017-Oct-09 13:00N 46°30' W 001°47'0 0.0
2017-Oct-09 12:31N 46°30' W 001°47'0 0.0
2017-Oct-09 12:00N 46°30' W 001°47'0 0.0
2017-Oct-09 11:31N 46°30' W 001°47'0 0.0
2017-Oct-09 11:01N 46°30' W 001°47'0 0.0
2017-Oct-09 10:31N 46°30' W 001°47'0 0.0
2017-Oct-09 10:00N 46°30' W 001°47'8 3.7
2017-Oct-09 07:49N 46°26' W 001°58'1 2.3
2017-Oct-09 07:30N 46°27' W 001°58'0 0.6
2017-Oct-09 07:01N 46°27' W 001°58'1 2.4
2017-Oct-09 06:30N 46°27' W 001°57'0 0.4
2017-Oct-09 06:00N 46°27' W 001°57'5 9.2
2017-Oct-09 05:30N 46°28' W 001°51'3 5.4
2017-Oct-09 05:00N 46°30' W 001°47'0 0.0
2017-Oct-09 04:30N 46°30' W 001°47'0 0.0
2017-Oct-09 04:00N 46°30' W 001°47'0 0.0
2017-Oct-09 03:31N 46°30' W 001°47'0 0.0
2017-Oct-09 03:00N 46°30' W 001°47'0 0.0
2017-Oct-09 02:30N 46°30' W 001°47'0 0.0
2017-Oct-09 02:01N 46°30' W 001°47'0 0.0
2017-Oct-09 01:31N 46°30' W 001°47'0 0.0
2017-Oct-09 01:00N 46°30' W 001°47'0 0.0
2017-Oct-09 00:31N 46°30' W 001°47'0 0.0
2017-Oct-09 00:00N 46°30' W 001°47'0 0.0
2017-Oct-08 23:30N 46°30' W 001°47'0 0.0
2017-Oct-08 23:00N 46°30' W 001°47'0 0.0
2017-Oct-08 22:30N 46°30' W 001°47'0 0.0
2017-Oct-08 22:00N 46°30' W 001°47'0 0.0
2017-Oct-08 21:30N 46°30' W 001°47'0 0.0
2017-Oct-08 21:00N 46°30' W 001°47'0 0.0
2017-Oct-08 20:30N 46°30' W 001°47'0 0.0
2017-Oct-08 20:00N 46°30' W 001°47'0 0.0
2017-Oct-08 19:31N 46°30' W 001°47'0 0.0
2017-Oct-08 19:00N 46°30' W 001°47'0 0.3
2017-Oct-08 18:30N 46°30' W 001°47'0 0.9
2017-Oct-08 18:00N 46°30' W 001°48'4 8.4
2017-Oct-08 17:30N 46°27' W 001°53'5 9.8
2017-Oct-08 17:01N 46°26' W 001°59'510.0
2017-Oct-08 16:30N 46°24' W 002°06'3 3.3
2017-Oct-08 15:39N 46°24' W 002°10'1 3.7
2017-Oct-08 15:29N 46°24' W 002°11'0 0.4
2017-Oct-08 15:00N 46°24' W 002°12'1 1.3
2017-Oct-08 14:19N 46°24' W 002°13'0 1.5
2017-Oct-08 14:00N 46°23' W 002°13'7 0.5
2017-Oct-08 01:59N 46°17' W 002°11'2 4.2
2017-Oct-08 01:30N 46°16' W 002°08'3 4.4
2017-Oct-08 00:46N 46°14' W 002°04'1 4.6
2017-Oct-08 00:30N 46°14' W 002°03'3 4.6
2017-Oct-07 23:56N 46°12' W 001°59'2 4.6
2017-Oct-07 23:28N 46°11' W 001°57'3 4.8
2017-Oct-07 22:54N 46°10' W 001°53'18 3.5
2017-Oct-07 17:41N 45°56' W 001°36'3 0.6
2017-Oct-07 12:05N 45°59' W 001°39'3 1.8
2017-Oct-07 10:33N 45°60' W 001°42'2 9.6
2017-Oct-07 10:24N 46°00' W 001°44'  

Dump ship's entire track history